createdAt,value
2019-02-18T00:00:43.148Z,70.30
2019-02-18T00:03:11.870Z,70.83
2019-02-18T00:05:40.475Z,57.97
2019-02-18T00:08:09.108Z,71.93
2019-02-18T00:10:37.787Z,66.97
2019-02-18T00:13:06.495Z,68.13
2019-02-18T00:15:35.631Z,68.60
2019-02-18T00:18:04.275Z,63.87
2019-02-18T00:20:33.005Z,66.53
2019-02-18T00:23:01.625Z,69.23
2019-02-18T00:25:32.000Z,65.10
2019-02-18T00:28:00.614Z,64.20
2019-02-18T00:30:29.273Z,68.07
2019-02-18T00:32:59.041Z,60.10
2019-02-18T00:35:27.597Z,64.57
2019-02-18T00:37:56.692Z,66.97
2019-02-18T00:40:25.485Z,73.43
2019-02-18T00:42:54.705Z,65.90
2019-02-18T00:45:23.994Z,70.87
2019-02-18T00:47:52.679Z,69.63
2019-02-18T00:50:21.239Z,71.17
2019-02-18T00:52:49.930Z,71.93
2019-02-18T00:55:18.527Z,58.07
2019-02-18T00:57:47.156Z,59.60
2019-02-18T01:00:17.635Z,53.83
2019-02-18T01:02:46.419Z,57.20
2019-02-18T01:05:15.897Z,59.77
2019-02-18T01:07:45.565Z,58.63
2019-02-18T01:10:15.941Z,56.90
2019-02-18T01:12:44.519Z,61.97
2019-02-18T01:15:15.683Z,59.47
2019-02-18T01:17:44.344Z,60.10
2019-02-18T01:20:14.060Z,56.50
2019-02-18T01:22:42.654Z,62.70
2019-02-18T01:25:13.539Z,54.87
2019-02-18T01:27:42.366Z,54.67
2019-02-18T01:30:13.735Z,61.93
2019-02-18T01:32:44.270Z,61.47
2019-02-18T01:35:13.088Z,57.47
2019-02-18T01:37:45.636Z,62.27
2019-02-18T01:40:13.624Z,62.90
2019-02-18T01:42:42.449Z,64.73
2019-02-18T01:45:14.309Z,65.10
2019-02-18T01:47:43.122Z,60.50
2019-02-18T01:50:13.585Z,60.37
2019-02-18T01:52:43.977Z,64.20
2019-02-18T01:55:13.436Z,62.60
2019-02-18T01:57:42.078Z,60.83
2019-02-18T02:00:15.423Z,58.97
2019-02-18T02:02:45.619Z,69.73
2019-02-18T02:05:16.405Z,66.77
2019-02-18T02:07:55.550Z,60.60
2019-02-18T02:10:15.834Z,57.47
2019-02-18T02:12:44.592Z,67.07
2019-02-18T02:15:16.825Z,57.87
2019-02-18T02:17:47.161Z,59.13
2019-02-18T02:20:17.349Z,62.80
2019-02-18T02:22:46.125Z,59.30
2019-02-18T02:25:14.750Z,60.00
2019-02-18T02:27:43.503Z,66.50
2019-02-18T02:30:12.111Z,60.33
2019-02-18T02:32:41.032Z,63.93
2019-02-18T02:35:11.048Z,62.73
2019-02-18T02:37:41.408Z,67.00
2019-02-18T02:40:10.171Z,57.83
2019-02-18T02:42:38.766Z,55.90
2019-02-18T02:45:08.440Z,57.97
2019-02-18T02:47:37.360Z,61.27
2019-02-18T02:50:07.245Z,62.07
2019-02-18T02:52:35.986Z,61.80
2019-02-18T02:55:05.926Z,65.57
2019-02-18T02:57:34.449Z,64.13
2019-02-18T03:00:03.515Z,69.47
2019-02-18T03:02:32.309Z,77.17
2019-02-18T03:05:01.044Z,70.97
2019-02-18T03:07:31.620Z,77.23
2019-02-18T03:10:00.372Z,72.60
2019-02-18T03:12:29.265Z,76.47
2019-02-18T03:14:58.009Z,73.20
2019-02-18T03:17:26.774Z,75.77
2019-02-18T03:19:55.323Z,75.40
2019-02-18T03:22:24.754Z,80.67
2019-02-18T03:25:20.651Z,59.10
2019-02-18T03:27:56.603Z,67.57
2019-02-18T03:30:42.634Z,67.07
2019-02-18T03:33:14.581Z,70.53
2019-02-18T03:35:43.267Z,75.53
2019-02-18T03:38:12.050Z,72.53
2019-02-18T03:40:40.840Z,70.10
2019-02-18T03:43:09.445Z,69.77
2019-02-18T03:45:38.353Z,62.37
2019-02-18T03:48:06.998Z,74.17
2019-02-18T03:50:35.679Z,76.63
2019-02-18T03:53:05.311Z,66.93
2019-02-18T03:55:34.044Z,66.30
2019-02-18T03:58:05.045Z,75.47
2019-02-18T04:00:34.716Z,74.53
2019-02-18T04:03:04.791Z,75.17
2019-02-18T04:05:35.423Z,87.23
2019-02-18T04:08:05.333Z,88.60
2019-02-18T04:10:34.669Z,88.47
2019-02-18T04:13:03.376Z,83.20
2019-02-18T04:15:32.008Z,99.23
2019-02-18T04:18:00.624Z,92.47
2019-02-18T04:20:29.230Z,100.70
2019-02-18T04:22:57.900Z,98.00
2019-02-18T04:25:26.387Z,98.47
2019-02-18T04:27:55.722Z,99.20
2019-02-18T04:30:25.824Z,107.33
2019-02-18T04:32:56.321Z,99.20
2019-02-18T04:35:25.862Z,107.13
2019-02-18T04:37:54.469Z,101.80
2019-02-18T04:40:25.546Z,108.23
2019-02-18T04:42:54.354Z,106.97
2019-02-18T04:45:22.915Z,120.80
2019-02-18T04:47:51.705Z,122.80
2019-02-18T04:50:20.909Z,103.10
2019-02-18T04:52:49.490Z,117.00
2019-02-18T04:55:18.234Z,108.37
2019-02-18T04:57:47.558Z,116.17
2019-02-18T05:00:16.292Z,109.53
2019-02-18T05:02:44.837Z,122.50
2019-02-18T05:05:13.567Z,113.20
2019-02-18T05:07:44.767Z,109.00
2019-02-18T05:10:13.468Z,118.80
2019-02-18T05:12:42.186Z,121.27
2019-02-18T05:15:10.839Z,119.70
2019-02-18T05:17:39.407Z,125.67
2019-02-18T05:20:08.933Z,122.10
2019-02-18T05:22:37.748Z,126.43
2019-02-18T05:25:08.229Z,125.93
2019-02-18T05:27:37.084Z,137.13
2019-02-18T05:30:09.161Z,133.00
2019-02-18T05:32:38.170Z,134.83
2019-02-18T05:35:07.987Z,132.53
2019-02-18T05:37:36.879Z,121.50
2019-02-18T05:40:08.236Z,131.53
2019-02-18T05:42:37.842Z,126.50
2019-02-18T05:45:08.476Z,115.40
2019-02-18T05:47:37.133Z,119.43
2019-02-18T05:50:07.992Z,126.50
2019-02-18T05:52:37.224Z,125.20
2019-02-18T05:55:07.287Z,117.53
2019-02-18T05:57:37.015Z,120.20
2019-02-18T06:00:11.803Z,137.83
2019-02-18T06:02:40.856Z,119.80
2019-02-18T06:05:10.068Z,132.60
2019-02-18T06:07:38.841Z,120.27
2019-02-18T06:10:09.016Z,133.10
2019-02-18T06:12:37.675Z,128.43
2019-02-18T06:15:09.238Z,124.97
2019-02-18T06:17:38.175Z,131.53
2019-02-18T06:20:12.524Z,124.13
2019-02-18T06:22:41.340Z,136.30
2019-02-18T06:25:11.905Z,124.53
2019-02-18T06:27:40.572Z,127.90
2019-02-18T06:30:10.506Z,114.63
2019-02-18T06:32:40.791Z,121.20
2019-02-18T06:35:09.602Z,131.77
2019-02-18T06:37:38.761Z,136.97
2019-02-18T06:40:10.469Z,124.40
2019-02-18T06:42:39.917Z,131.70
2019-02-18T06:45:11.995Z,133.30
2019-02-18T06:47:41.516Z,129.70
2019-02-18T06:50:10.581Z,124.93
2019-02-18T06:52:39.716Z,132.37
2019-02-18T06:55:10.450Z,122.53
2019-02-18T06:57:44.064Z,131.30
2019-02-18T07:00:14.919Z,132.30
2019-02-18T07:02:45.627Z,124.33
2019-02-18T07:05:16.146Z,126.63
2019-02-18T07:07:47.187Z,126.57
2019-02-18T07:10:18.234Z,120.30
2019-02-18T07:12:48.149Z,120.90
2019-02-18T07:15:17.118Z,123.90
2019-02-18T07:17:46.509Z,122.67
2019-02-18T07:20:17.028Z,113.87
2019-02-18T07:22:46.040Z,121.53
2019-02-18T07:25:16.743Z,119.40
2019-02-18T07:27:46.404Z,110.73
2019-02-18T07:30:16.034Z,119.10
2019-02-18T07:32:45.302Z,111.17
2019-02-18T07:35:17.444Z,130.33
2019-02-18T07:37:48.324Z,113.93
2019-02-18T07:40:19.589Z,128.80
2019-02-18T07:42:48.924Z,122.30
2019-02-18T07:45:18.556Z,119.70
2019-02-18T07:47:50.816Z,119.97
2019-02-18T07:50:21.065Z,121.03
2019-02-18T07:52:50.639Z,118.67
2019-02-18T07:55:20.729Z,118.77
2019-02-18T07:57:49.531Z,119.90
2019-02-18T08:00:19.100Z,118.07
2019-02-18T08:02:48.311Z,114.67
2019-02-18T08:05:17.922Z,123.13
2019-02-18T08:07:46.812Z,113.40
2019-02-18T08:10:16.111Z,122.60
2019-02-18T08:12:45.439Z,117.20
2019-02-18T08:15:15.028Z,105.70
2019-02-18T08:17:44.034Z,110.43
2019-02-18T08:20:13.460Z,114.67
2019-02-18T08:22:42.601Z,110.17
2019-02-18T08:25:13.545Z,114.63
2019-02-18T08:27:42.662Z,113.27
2019-02-18T08:30:13.956Z,111.30
2019-02-18T08:32:43.125Z,111.37
2019-02-18T08:35:12.265Z,114.07
2019-02-18T08:37:41.317Z,119.93
2019-02-18T08:40:10.567Z,120.43
2019-02-18T08:42:39.710Z,111.37
2019-02-18T08:45:12.142Z,102.93
2019-02-18T08:47:40.818Z,116.50
2019-02-18T08:50:12.057Z,113.87
2019-02-18T08:52:41.226Z,111.17
2019-02-18T08:55:13.219Z,117.60
2019-02-18T08:57:42.568Z,117.53
2019-02-18T09:00:14.267Z,106.07
2019-02-18T09:02:43.626Z,110.30
2019-02-18T09:05:13.120Z,104.40
2019-02-18T09:07:44.477Z,110.33
2019-02-18T09:10:14.787Z,119.13
2019-02-18T09:12:46.005Z,119.70
2019-02-18T09:15:15.961Z,121.77
2019-02-18T09:17:46.237Z,119.30
2019-02-18T09:20:15.354Z,117.13
2019-02-18T09:22:48.867Z,108.87
2019-02-18T09:25:19.710Z,114.97
2019-02-18T09:27:50.549Z,110.00
2019-02-18T09:30:22.210Z,116.60
2019-02-18T09:32:51.365Z,114.47
2019-02-18T09:35:23.476Z,105.27
2019-02-18T09:37:52.752Z,114.43
2019-02-18T09:40:23.374Z,119.47
2019-02-18T09:42:52.547Z,104.00
2019-02-18T09:45:21.723Z,106.43
2019-02-18T09:47:54.417Z,109.27
2019-02-18T09:50:23.929Z,108.37
2019-02-18T09:52:54.197Z,102.53
2019-02-18T09:55:23.361Z,109.43
2019-02-18T09:57:52.350Z,102.67
2019-02-18T10:00:21.763Z,97.90
2019-02-18T10:02:51.052Z,92.40
2019-02-18T10:05:20.269Z,83.87
2019-02-18T10:07:49.419Z,86.40
2019-02-18T10:10:20.016Z,92.63
2019-02-18T10:12:49.257Z,86.83
2019-02-18T10:15:18.362Z,80.20
2019-02-18T10:17:47.595Z,76.33
2019-02-18T10:20:16.780Z,71.47
2019-02-18T10:22:46.058Z,73.83
2019-02-18T10:25:15.280Z,77.40
2019-02-18T10:27:44.444Z,71.20
2019-02-18T10:30:13.659Z,68.23
2019-02-18T10:32:44.540Z,71.67
2019-02-18T10:35:15.158Z,79.23
2019-02-18T10:37:44.320Z,81.23
2019-02-18T10:40:15.263Z,71.37
2019-02-18T10:42:44.414Z,73.27
2019-02-18T10:45:13.958Z,67.07
2019-02-18T10:47:43.261Z,73.33
2019-02-18T10:50:12.772Z,71.63
2019-02-18T10:52:41.860Z,71.40
2019-02-18T10:55:11.954Z,77.33
2019-02-18T10:57:41.340Z,64.33
2019-02-18T11:00:15.401Z,62.43
2019-02-18T11:02:44.655Z,64.90
2019-02-18T11:05:14.129Z,62.20
2019-02-18T11:07:43.739Z,62.37
2019-02-18T11:10:16.341Z,64.03
2019-02-18T11:12:47.513Z,61.93
2019-02-18T11:15:16.175Z,61.23
2019-02-18T11:17:45.914Z,62.63
2019-02-18T11:20:15.194Z,57.47
2019-02-18T11:22:45.363Z,64.03
2019-02-18T11:25:15.682Z,60.63
2019-02-18T11:27:44.577Z,60.77
2019-02-18T11:30:19.079Z,62.13
2019-02-18T11:32:48.189Z,59.90
2019-02-18T11:35:18.934Z,57.93
2019-02-18T11:37:48.377Z,63.43
2019-02-18T11:40:20.414Z,70.03
2019-02-18T11:42:49.615Z,66.43
2019-02-18T11:45:18.721Z,55.67
2019-02-18T11:47:48.171Z,65.17
2019-02-18T11:50:17.185Z,66.97
2019-02-18T11:52:46.524Z,65.40
2019-02-18T11:55:15.711Z,61.27
2019-02-18T11:57:45.461Z,64.83
2019-02-18T12:00:15.861Z,64.30
2019-02-18T12:02:46.811Z,67.80
2019-02-18T12:05:16.099Z,72.47
2019-02-18T12:07:45.324Z,67.20
2019-02-18T12:10:14.997Z,62.30
2019-02-18T12:12:45.480Z,72.20
2019-02-18T12:15:15.731Z,69.17
2019-02-18T12:17:45.206Z,63.90
2019-02-18T12:20:17.082Z,66.70
2019-02-18T12:22:46.338Z,64.60
2019-02-18T12:25:16.006Z,56.67
2019-02-18T12:27:45.301Z,62.60
2019-02-18T12:30:16.720Z,66.90
2019-02-18T12:32:47.564Z,61.13
2019-02-18T12:35:19.563Z,55.93
2019-02-18T12:37:55.375Z,56.60
2019-02-18T12:40:21.090Z,55.97
2019-02-18T12:42:50.183Z,45.10
2019-02-18T12:45:19.367Z,49.87
2019-02-18T12:47:48.519Z,51.00
2019-02-18T12:50:17.677Z,53.53
2019-02-18T12:52:47.171Z,49.97
2019-02-18T12:55:17.346Z,48.87
2019-02-18T12:57:48.448Z,52.90
2019-02-18T13:00:21.540Z,52.20
2019-02-18T13:02:53.327Z,55.80
2019-02-18T13:05:22.817Z,58.60
2019-02-18T13:07:54.675Z,51.10
2019-02-18T13:10:34.729Z,55.37
2019-02-18T13:12:57.243Z,51.07
2019-02-18T13:15:26.210Z,52.30
2019-02-18T13:17:55.035Z,57.10
2019-02-18T13:20:24.440Z,47.97
2019-02-18T13:22:53.521Z,48.97
2019-02-18T13:25:23.086Z,42.67
2019-02-18T13:27:55.011Z,46.77
2019-02-18T13:30:24.413Z,45.10
2019-02-18T13:32:53.712Z,47.03
2019-02-18T13:35:24.322Z,40.97
2019-02-18T13:37:53.635Z,36.80
2019-02-18T13:40:22.817Z,40.57
2019-02-18T13:42:56.349Z,37.53
2019-02-18T13:45:26.022Z,42.67
2019-02-18T13:47:55.296Z,41.37
2019-02-18T13:50:25.032Z,40.67
2019-02-18T13:52:54.365Z,42.90
2019-02-18T13:55:24.075Z,44.53
2019-02-18T13:57:54.729Z,44.00
2019-02-18T14:00:24.066Z,43.47
2019-02-18T14:02:54.635Z,43.30
2019-02-18T14:05:24.143Z,49.07
2019-02-18T14:07:53.498Z,42.90
2019-02-18T14:10:23.085Z,45.40
2019-02-18T14:12:52.517Z,39.93
2019-02-18T14:15:22.116Z,48.70
2019-02-18T14:17:51.237Z,48.63
2019-02-18T14:20:22.067Z,44.50
2019-02-18T14:22:51.290Z,50.63
2019-02-18T14:25:20.953Z,45.47
2019-02-18T14:27:50.674Z,45.77
2019-02-18T14:30:20.254Z,43.80
2019-02-18T14:32:51.453Z,59.60
2019-02-18T14:35:20.923Z,57.07
2019-02-18T14:37:50.538Z,53.73
2019-02-18T14:40:22.916Z,45.43
2019-02-18T14:42:51.973Z,44.20
2019-02-18T14:45:22.611Z,57.23
2019-02-18T14:47:53.244Z,45.40
2019-02-18T14:50:22.551Z,52.77
2019-02-18T14:52:51.915Z,54.80
2019-02-18T14:55:21.050Z,44.67
2019-02-18T14:57:51.135Z,47.07
2019-02-18T15:00:23.497Z,57.47
2019-02-18T15:02:54.400Z,55.30
2019-02-18T15:05:24.061Z,56.40
2019-02-18T15:07:54.919Z,63.27
2019-02-18T15:10:24.236Z,68.57
2019-02-18T15:12:53.588Z,63.60
2019-02-18T15:15:22.913Z,53.30
2019-02-18T15:17:53.543Z,50.03
2019-02-18T15:20:23.941Z,51.00
2019-02-18T15:22:53.266Z,52.13
2019-02-18T15:25:22.810Z,58.40
2019-02-18T15:27:53.464Z,59.43
2019-02-18T15:30:24.984Z,61.87
2019-02-18T15:32:55.291Z,55.03
2019-02-18T15:35:26.387Z,61.43
2019-02-18T15:37:56.571Z,62.70
2019-02-18T15:40:25.797Z,62.70
2019-02-18T15:42:54.806Z,74.83
2019-02-18T15:45:24.285Z,97.40
2019-02-18T15:48:01.367Z,88.07
2019-02-18T15:50:24.375Z,81.20
2019-02-18T15:52:54.249Z,77.47
2019-02-18T15:55:23.579Z,97.37
2019-02-18T15:57:52.989Z,117.00
2019-02-18T16:00:25.367Z,136.47
2019-02-18T16:02:54.769Z,105.13
2019-02-18T16:05:24.040Z,84.67
2019-02-18T16:07:53.449Z,85.93
2019-02-18T16:10:22.763Z,72.83
2019-02-18T16:12:52.147Z,64.20
2019-02-18T16:15:22.111Z,63.57
2019-02-18T16:17:51.120Z,61.70
2019-02-18T16:20:20.574Z,58.10
2019-02-18T16:22:49.782Z,55.63
2019-02-18T16:25:21.814Z,63.87
2019-02-18T16:27:51.238Z,69.80
2019-02-18T16:30:20.397Z,64.30
2019-02-18T16:32:49.669Z,57.47
2019-02-18T16:35:18.940Z,54.00
2019-02-18T16:37:48.485Z,67.90
2019-02-18T16:40:18.740Z,70.80
2019-02-18T16:42:47.950Z,70.13
2019-02-18T16:45:17.246Z,75.97
2019-02-18T16:47:47.061Z,86.63
2019-02-18T16:50:16.217Z,79.27
2019-02-18T16:52:45.757Z,78.77
2019-02-18T16:55:16.022Z,71.00
2019-02-18T16:57:45.350Z,84.80
2019-02-18T17:00:29.051Z,83.80
2019-02-18T17:02:59.456Z,81.97
2019-02-18T17:05:29.053Z,92.53
2019-02-18T17:07:58.130Z,88.27
2019-02-18T17:10:29.467Z,74.80
2019-02-18T17:12:58.119Z,77.47
2019-02-18T17:15:32.116Z,84.73
2019-02-18T17:18:01.072Z,77.03
2019-02-18T17:20:30.216Z,88.93
2019-02-18T17:23:00.079Z,93.57
2019-02-18T17:29:10.575Z,78.43
2019-02-18T17:31:39.535Z,80.70
2019-02-18T17:34:08.496Z,77.97
2019-02-18T17:36:37.417Z,82.03
2019-02-18T17:39:06.684Z,81.67
2019-02-18T17:41:35.586Z,87.90
2019-02-18T17:44:04.678Z,75.50
2019-02-18T17:46:35.223Z,79.97
2019-02-18T17:49:03.978Z,76.30
2019-02-18T17:51:32.671Z,79.03
2019-02-18T17:54:02.010Z,82.60
2019-02-18T17:56:31.799Z,82.20
2019-02-18T17:59:01.050Z,77.37
2019-02-18T18:01:31.742Z,91.33
2019-02-18T18:04:01.209Z,79.37
2019-02-18T18:06:29.987Z,90.53
2019-02-18T18:08:58.730Z,82.47
2019-02-18T18:11:29.995Z,79.23
2019-02-18T18:13:59.128Z,82.23
2019-02-18T18:16:28.268Z,87.80
2019-02-18T18:18:57.287Z,86.33
2019-02-18T18:21:27.227Z,89.57
2019-02-18T18:23:56.678Z,80.73
2019-02-18T18:26:28.934Z,78.80
2019-02-18T18:29:01.537Z,88.80
2019-02-18T18:31:35.347Z,87.43
2019-02-18T18:34:04.279Z,77.30
2019-02-18T18:36:33.644Z,87.67
2019-02-18T18:39:03.326Z,90.60
2019-02-18T18:41:32.196Z,95.03
2019-02-18T18:44:01.203Z,83.77
2019-02-18T18:46:30.663Z,92.83
2019-02-18T18:48:59.640Z,90.10
2019-02-18T18:51:28.839Z,72.13
2019-02-18T18:53:57.857Z,81.47
2019-02-18T18:56:26.589Z,75.47
2019-02-18T18:58:55.209Z,84.23
2019-02-18T19:01:29.277Z,74.80
2019-02-18T19:03:58.167Z,80.87
2019-02-18T19:06:27.567Z,87.63
2019-02-18T19:08:56.661Z,82.27
2019-02-18T19:11:31.569Z,77.30
2019-02-18T19:14:00.634Z,83.13
2019-02-18T19:16:29.515Z,95.87
2019-02-18T19:18:58.403Z,78.50
2019-02-18T19:21:27.324Z,94.90
2019-02-18T19:23:56.195Z,97.80
2019-02-18T19:26:25.183Z,95.97
2019-02-18T19:28:54.169Z,103.93
2019-02-18T19:31:23.108Z,99.07
2019-02-18T19:33:52.057Z,91.77
2019-02-18T19:36:20.775Z,89.63
2019-02-18T19:38:49.437Z,92.13
2019-02-18T19:41:19.365Z,88.93
2019-02-18T19:43:50.311Z,87.83
2019-02-18T19:46:18.686Z,83.67
2019-02-18T19:48:49.080Z,98.53
2019-02-18T19:51:17.880Z,103.27
2019-02-18T19:53:46.640Z,98.80
2019-02-18T19:56:16.481Z,96.73
2019-02-18T19:58:45.368Z,94.23
2019-02-18T20:01:14.163Z,96.20
2019-02-18T20:03:43.363Z,103.17
2019-02-18T20:06:12.448Z,105.30
2019-02-18T20:08:41.280Z,88.03
2019-02-18T20:11:10.049Z,88.70
2019-02-18T20:13:38.920Z,93.77
2019-02-18T20:16:07.720Z,95.53
2019-02-18T20:18:39.041Z,99.20
2019-02-18T20:21:10.086Z,94.47
2019-02-18T20:23:38.874Z,98.67
2019-02-18T20:26:07.640Z,94.97
2019-02-18T20:28:36.882Z,94.90
2019-02-18T20:31:07.479Z,100.43
2019-02-18T20:33:37.480Z,96.67
2019-02-18T20:36:06.480Z,97.97
2019-02-18T20:38:35.402Z,97.43
2019-02-18T20:41:06.120Z,93.20
2019-02-18T20:43:34.994Z,105.73
2019-02-18T20:46:04.608Z,108.80
2019-02-18T20:48:33.600Z,98.70
2019-02-18T20:51:02.400Z,104.17
2019-02-18T20:53:32.001Z,103.30
2019-02-18T20:56:03.679Z,134.00
2019-02-18T20:58:32.572Z,158.60
2019-02-18T21:01:04.111Z,191.00
2019-02-18T21:03:32.866Z,152.57
2019-02-18T21:06:04.062Z,135.83
2019-02-18T21:08:33.207Z,154.63
2019-02-18T21:11:02.327Z,153.73
2019-02-18T21:13:33.131Z,159.63
2019-02-18T21:16:02.064Z,153.90
2019-02-18T21:18:31.131Z,130.27
2019-02-18T21:21:04.611Z,119.87
2019-02-18T21:23:33.749Z,120.73
2019-02-18T21:26:02.655Z,136.23
2019-02-18T21:28:31.813Z,154.77
2019-02-18T21:31:01.372Z,149.80
2019-02-18T21:33:30.432Z,144.30
2019-02-18T21:35:59.523Z,141.27
2019-02-18T21:38:28.459Z,149.03
2019-02-18T21:40:57.264Z,162.93
2019-02-18T21:43:26.294Z,180.90
2019-02-18T21:45:55.103Z,176.13
2019-02-18T21:48:24.013Z,189.67
2019-02-18T21:50:53.125Z,166.70
2019-02-18T21:53:22.289Z,154.43
2019-02-18T21:55:51.219Z,154.37
2019-02-18T21:58:20.323Z,133.27
2019-02-18T22:00:50.780Z,137.50
2019-02-18T22:03:30.196Z,146.17
2019-02-18T22:05:59.178Z,140.37
2019-02-18T22:08:28.257Z,135.67
2019-02-18T22:10:57.143Z,143.50
2019-02-18T22:13:26.045Z,149.83
2019-02-18T22:15:54.731Z,139.37
2019-02-18T22:18:23.345Z,129.77
2019-02-18T22:20:52.153Z,123.83
2019-02-18T22:23:21.214Z,121.97
2019-02-18T22:25:51.431Z,116.47
2019-02-18T22:28:20.816Z,127.40
2019-02-18T22:30:50.017Z,130.43
2019-02-18T22:33:20.372Z,141.27
2019-02-18T22:35:50.562Z,138.90
2019-02-18T22:38:19.354Z,129.10
2019-02-18T22:40:48.618Z,141.53
2019-02-18T22:43:17.325Z,135.00
2019-02-18T22:45:47.284Z,156.70
2019-02-18T22:48:16.021Z,150.70
2019-02-18T22:50:47.053Z,159.17
2019-02-18T22:53:16.772Z,146.67
2019-02-18T22:55:50.171Z,157.10
2019-02-18T22:58:31.048Z,130.30
2019-02-18T23:01:00.851Z,129.50
2019-02-18T23:03:29.433Z,148.63
2019-02-18T23:05:58.120Z,135.27
2019-02-18T23:08:26.806Z,135.93
2019-02-18T23:10:55.481Z,124.43
2019-02-18T23:13:24.061Z,143.90
2019-02-18T23:15:52.759Z,125.97
2019-02-18T23:18:22.041Z,132.83
2019-02-18T23:20:52.070Z,136.37
2019-02-18T23:23:20.580Z,142.23
2019-02-18T23:25:49.124Z,129.67
2019-02-18T23:28:18.219Z,132.67
2019-02-18T23:30:46.896Z,130.47
2019-02-18T23:33:15.375Z,146.72
2019-02-18T23:35:44.171Z,142.77
2019-02-18T23:38:12.668Z,135.10
2019-02-18T23:40:42.185Z,133.00
2019-02-18T23:43:10.842Z,139.27
2019-02-18T23:45:39.420Z,149.53
2019-02-18T23:48:08.262Z,142.60
2019-02-18T23:50:37.924Z,140.87
2019-02-18T23:53:06.605Z,150.47
2019-02-18T23:55:35.191Z,145.90
2019-02-18T23:58:03.985Z,142.07
